createdAt,value
2018-08-23T00:01:07.420Z,11.30
2018-08-23T00:03:38.591Z,10.63
2018-08-23T00:06:07.113Z,9.78
2018-08-23T00:08:35.456Z,11.08
2018-08-23T00:11:03.836Z,11.57
2018-08-23T00:13:37.481Z,10.45
2018-08-23T00:16:07.199Z,10.58
2018-08-23T00:18:35.513Z,10.32
2018-08-23T00:21:04.603Z,13.43
2018-08-23T00:23:32.912Z,10.28
2018-08-23T00:26:01.261Z,10.58
2018-08-23T00:28:29.573Z,11.03
2018-08-23T00:30:57.944Z,11.33
2018-08-23T00:33:26.292Z,11.83
2018-08-23T00:35:54.608Z,10.75
2018-08-23T00:38:22.949Z,10.60
2018-08-23T00:40:51.268Z,11.30
2018-08-23T00:43:19.608Z,10.90
2018-08-23T00:45:47.924Z,11.22
2018-08-23T00:48:16.260Z,11.68
2018-08-23T00:50:47.953Z,11.57
2018-08-23T00:53:16.636Z,10.68
2018-08-23T00:55:44.954Z,10.80
2018-08-23T00:58:13.419Z,10.90
2018-08-23T01:00:43.462Z,10.23
2018-08-23T01:03:11.799Z,11.63
2018-08-23T01:05:40.687Z,10.48
2018-08-23T01:08:09.586Z,11.03
2018-08-23T01:10:37.971Z,10.68
2018-08-23T01:13:06.336Z,9.48
2018-08-23T01:15:34.704Z,11.57
2018-08-23T01:18:17.677Z,10.55
2018-08-23T01:20:47.060Z,10.98
2018-08-23T01:23:15.455Z,11.10
2018-08-23T01:25:45.041Z,10.90
2018-08-23T01:28:13.407Z,11.43
2018-08-23T01:30:42.104Z,10.20
2018-08-23T01:33:24.939Z,11.15
2018-08-23T01:35:53.276Z,11.00
2018-08-23T01:38:21.643Z,11.93
2018-08-23T01:40:58.308Z,10.72
2018-08-23T01:43:26.677Z,12.00
2018-08-23T01:45:55.008Z,12.95
2018-08-23T01:48:23.363Z,12.10
2018-08-23T01:50:51.699Z,11.15
2018-08-23T01:53:20.076Z,11.90
2018-08-23T01:55:48.404Z,12.98
2018-08-23T01:58:16.951Z,11.28
2018-08-23T02:00:46.452Z,12.03
2018-08-23T02:03:14.820Z,12.65
2018-08-23T02:05:43.308Z,11.68
2018-08-23T02:08:11.667Z,14.20
2018-08-23T02:10:40.040Z,11.80
2018-08-23T02:13:13.384Z,11.68
2018-08-23T02:15:47.108Z,10.78
2018-08-23T02:18:15.479Z,11.05
2018-08-23T02:20:43.808Z,11.65
2018-08-23T02:23:12.171Z,11.25
2018-08-23T02:25:40.517Z,11.85
2018-08-23T02:28:12.345Z,12.10
2018-08-23T02:30:54.672Z,11.20
2018-08-23T02:33:23.101Z,12.55
2018-08-23T02:36:17.687Z,11.40
2018-08-23T02:38:47.968Z,11.70
2018-08-23T02:41:16.916Z,11.90
2018-08-23T02:43:45.939Z,12.35
2018-08-23T02:46:14.320Z,12.18
2018-08-23T02:48:42.696Z,13.15
2018-08-23T02:51:11.048Z,12.30
2018-08-23T02:53:41.653Z,11.88
2018-08-23T02:56:11.887Z,12.90
2018-08-23T02:58:49.038Z,11.63
2018-08-23T03:01:17.375Z,12.20
2018-08-23T03:04:11.787Z,12.23
2018-08-23T03:07:12.608Z,12.60
2018-08-23T03:09:43.779Z,12.43
2018-08-23T03:12:18.063Z,13.68
2018-08-23T03:14:46.788Z,12.60
2018-08-23T03:17:26.496Z,12.05
2018-08-23T03:20:17.748Z,12.60
2018-08-23T03:22:47.708Z,12.10
2018-08-23T03:25:19.220Z,11.78
2018-08-23T03:27:47.550Z,12.07
2018-08-23T03:30:17.102Z,11.08
2018-08-23T03:32:45.523Z,11.48
2018-08-23T03:35:13.904Z,11.57
2018-08-23T03:37:42.244Z,12.15
2018-08-23T03:40:11.640Z,11.63
2018-08-23T03:42:40.036Z,11.00
2018-08-23T03:45:14.692Z,14.30
2018-08-23T03:47:48.399Z,12.05
2018-08-23T03:50:16.801Z,11.50
2018-08-23T03:52:48.043Z,11.25
2018-08-23T03:55:24.757Z,12.40
2018-08-23T03:58:07.693Z,11.90
2018-08-23T04:00:48.149Z,10.35
2018-08-23T04:03:20.117Z,13.00
2018-08-23T04:05:48.505Z,11.75
2018-08-23T04:08:16.952Z,12.00
2018-08-23T04:10:45.317Z,10.55
2018-08-23T04:13:13.643Z,12.05
2018-08-23T04:15:42.009Z,11.00
2018-08-23T04:18:14.891Z,11.35
2018-08-23T04:20:51.433Z,11.40
2018-08-23T04:23:19.831Z,10.85
2018-08-23T04:25:48.175Z,10.75
2018-08-23T04:28:16.575Z,10.58
2018-08-23T04:30:45.010Z,11.10
2018-08-23T04:33:13.367Z,10.70
2018-08-23T04:35:41.768Z,11.85
2018-08-23T04:38:10.241Z,12.13
2018-08-23T04:40:38.641Z,11.38
2018-08-23T04:43:07.073Z,11.28
2018-08-23T04:45:35.390Z,10.82
2018-08-23T04:48:04.472Z,12.25
2018-08-23T04:50:32.836Z,12.07
2018-08-23T04:53:01.238Z,11.10
2018-08-23T04:55:29.581Z,11.95
2018-08-23T04:57:58.798Z,11.22
2018-08-23T05:00:27.971Z,11.97
2018-08-23T05:02:56.380Z,11.25
2018-08-23T05:05:24.772Z,11.80
2018-08-23T05:07:53.143Z,11.70
2018-08-23T05:10:21.499Z,11.00
2018-08-23T05:12:49.881Z,11.05
2018-08-23T05:15:18.249Z,12.35
2018-08-23T05:17:46.612Z,11.68
2018-08-23T05:20:14.989Z,11.80
2018-08-23T05:22:49.096Z,12.40
2018-08-23T05:25:17.468Z,11.33
2018-08-23T05:28:02.440Z,11.10
2018-08-23T05:30:30.783Z,11.00
2018-08-23T05:33:04.523Z,12.10
2018-08-23T05:35:32.945Z,11.65
2018-08-23T05:38:01.718Z,10.82
2018-08-23T05:40:34.336Z,11.00
2018-08-23T05:43:02.659Z,9.88
2018-08-23T05:45:36.395Z,11.05
2018-08-23T05:48:24.395Z,10.98
2018-08-23T05:50:52.760Z,10.45
2018-08-23T05:53:21.240Z,11.35
2018-08-23T05:55:51.847Z,10.50
2018-08-23T05:58:24.436Z,10.30
2018-08-23T06:00:52.888Z,10.15
2018-08-23T06:03:21.231Z,10.95
2018-08-23T06:05:50.188Z,11.30
2018-08-23T06:08:18.628Z,12.50
2018-08-23T06:10:47.566Z,11.05
2018-08-23T06:13:16.512Z,10.45
2018-08-23T06:15:51.588Z,10.18
2018-08-23T06:18:20.767Z,9.78
2018-08-23T06:20:49.168Z,11.18
2018-08-23T06:23:18.010Z,12.00
2018-08-23T06:25:46.949Z,11.63
2018-08-23T06:28:21.444Z,10.60
2018-08-23T06:30:49.864Z,12.33
2018-08-23T06:33:38.717Z,10.82
2018-08-23T06:36:08.337Z,10.45
2018-08-23T06:38:37.509Z,11.05
2018-08-23T06:41:07.133Z,10.72
2018-08-23T06:43:35.895Z,10.70
2018-08-23T06:46:04.864Z,10.98
2018-08-23T06:48:33.363Z,11.30
2018-08-23T06:51:02.504Z,11.70
2018-08-23T06:53:43.640Z,11.22
2018-08-23T06:56:12.020Z,10.50
2018-08-23T06:58:40.349Z,10.45
2018-08-23T07:01:14.160Z,9.60
2018-08-23T07:03:53.122Z,11.55
2018-08-23T07:06:21.524Z,10.03
2018-08-23T07:08:49.862Z,10.15
2018-08-23T07:11:21.374Z,8.78
2018-08-23T07:13:57.227Z,11.22
2018-08-23T07:16:26.129Z,10.18
2018-08-23T07:18:54.777Z,10.35
2018-08-23T07:21:23.152Z,10.43
2018-08-23T07:23:51.520Z,11.78
2018-08-23T07:26:19.973Z,9.93
2018-08-23T07:28:48.320Z,10.68
2018-08-23T07:31:16.692Z,11.80
2018-08-23T07:33:47.859Z,11.10
2018-08-23T07:36:25.924Z,10.58
2018-08-23T07:38:54.335Z,10.28
2018-08-23T07:41:22.700Z,11.22
2018-08-23T07:43:51.036Z,10.45
2018-08-23T07:46:19.428Z,11.55
2018-08-23T07:48:47.808Z,11.38
2018-08-23T07:51:21.597Z,11.30
2018-08-23T07:53:49.932Z,11.18
2018-08-23T07:56:25.384Z,11.55
2018-08-23T07:58:54.791Z,11.22
2018-08-23T08:01:28.659Z,11.85
2018-08-23T08:03:57.908Z,12.37
2018-08-23T08:06:27.076Z,11.43
2018-08-23T08:08:57.016Z,12.70
2018-08-23T08:11:25.443Z,11.05
2018-08-23T08:13:59.172Z,10.53
2018-08-23T08:16:32.484Z,11.83
2018-08-23T08:19:00.888Z,10.25
2018-08-23T08:21:29.385Z,10.30
2018-08-23T08:23:59.172Z,12.40
2018-08-23T08:26:28.856Z,10.75
2018-08-23T08:28:57.228Z,10.80
2018-08-23T08:31:25.568Z,10.08
2018-08-23T08:33:57.305Z,10.38
2018-08-23T08:36:26.477Z,10.30
2018-08-23T08:38:54.839Z,10.93
2018-08-23T08:41:23.180Z,10.18
2018-08-23T08:43:51.593Z,10.50
2018-08-23T08:46:19.954Z,10.20
2018-08-23T08:48:48.333Z,11.00
2018-08-23T08:51:21.593Z,10.90
2018-08-23T08:53:50.076Z,9.70
2018-08-23T08:56:32.968Z,10.08
2018-08-23T08:59:01.417Z,10.13
2018-08-23T09:01:29.892Z,9.43
2018-08-23T09:03:58.288Z,9.40
2018-08-23T09:06:30.538Z,9.00
2018-08-23T09:08:59.215Z,10.00
2018-08-23T09:11:28.379Z,9.63
2018-08-23T09:14:00.699Z,9.67
2018-08-23T09:16:29.031Z,9.17
2018-08-23T09:19:00.500Z,10.00
2018-08-23T09:21:29.161Z,8.63
2018-08-23T09:24:02.808Z,8.80
2018-08-23T09:26:36.744Z,9.97
2018-08-23T09:29:06.045Z,8.20
2018-08-23T09:31:34.375Z,8.63
2018-08-23T09:34:02.756Z,8.17
2018-08-23T09:36:31.101Z,8.90
2018-08-23T09:38:59.480Z,10.03
2018-08-23T09:41:27.837Z,9.37
2018-08-23T09:43:56.204Z,9.20
2018-08-23T09:46:24.572Z,9.17
2018-08-23T09:48:52.908Z,8.83
2018-08-23T09:51:26.676Z,8.77
2018-08-23T09:53:55.011Z,9.47
2018-08-23T09:56:29.438Z,9.07
2018-08-23T09:58:58.717Z,9.40
2018-08-23T10:03:39.216Z,9.20
2018-08-23T10:06:12.877Z,9.40
2018-08-23T10:08:46.768Z,10.17
2018-08-23T10:11:20.999Z,10.33
2018-08-23T10:13:54.473Z,9.70
2018-08-23T10:16:28.097Z,9.80
2018-08-23T10:18:58.456Z,10.10
2018-08-23T10:21:32.104Z,10.03
2018-08-23T10:24:06.419Z,9.10
2018-08-23T10:26:34.864Z,9.90
2018-08-23T10:29:03.204Z,9.70
2018-08-23T10:31:31.616Z,9.60
2018-08-23T10:33:59.964Z,9.43
2018-08-23T10:36:28.344Z,8.47
2018-08-23T10:38:56.684Z,9.30
2018-08-23T10:41:25.044Z,8.70
2018-08-23T10:43:53.460Z,9.87
2018-08-23T10:46:21.832Z,10.50
2018-08-23T10:48:50.168Z,9.60
2018-08-23T10:51:18.562Z,9.83
2018-08-23T10:53:46.888Z,9.20
2018-08-23T10:56:15.255Z,9.50
2018-08-23T10:58:43.593Z,8.70
2018-08-23T11:01:12.018Z,9.47
2018-08-23T11:03:40.373Z,9.30
2018-08-23T11:06:08.748Z,9.87
2018-08-23T11:08:38.228Z,9.00
2018-08-23T11:11:11.993Z,9.83
2018-08-23T11:13:47.084Z,8.87
2018-08-23T11:16:20.729Z,10.43
2018-08-23T11:18:54.341Z,9.57
2018-08-23T11:21:22.736Z,9.97
2018-08-23T11:23:51.084Z,9.67
2018-08-23T11:26:24.763Z,8.60
2018-08-23T11:28:53.095Z,9.63
2018-08-23T11:31:26.976Z,9.03
2018-08-23T11:33:55.324Z,10.13
2018-08-23T11:36:23.924Z,10.43
2018-08-23T11:38:52.268Z,9.50
2018-08-23T11:41:20.654Z,9.03
2018-08-23T11:43:49.368Z,8.33
2018-08-23T11:46:19.051Z,8.97
2018-08-23T11:48:48.004Z,9.50
2018-08-23T11:51:17.144Z,8.63
2018-08-23T11:53:46.096Z,8.27
2018-08-23T11:56:14.429Z,8.73
2018-08-23T11:58:43.205Z,9.50
2018-08-23T12:01:12.712Z,7.60
2018-08-23T12:03:41.634Z,8.83
2018-08-23T12:06:11.408Z,8.80
2018-08-23T12:08:39.920Z,8.27
2018-08-23T12:11:08.264Z,8.40
2018-08-23T12:13:36.640Z,9.97
2018-08-23T12:16:07.360Z,7.20
2018-08-23T12:18:36.937Z,5.90
2018-08-23T12:21:05.586Z,5.60
2018-08-23T12:23:34.080Z,6.50
2018-08-23T12:26:02.475Z,6.50
2018-08-23T12:28:36.252Z,5.60
2018-08-23T12:31:04.668Z,5.33
2018-08-23T12:33:33.078Z,6.25
2018-08-23T12:36:01.474Z,5.05
2018-08-23T12:38:35.240Z,6.10
2018-08-23T12:41:08.809Z,7.40
2018-08-23T12:43:45.793Z,9.20
2018-08-23T12:46:14.452Z,8.85
2018-08-23T12:48:43.045Z,9.48
2018-08-23T12:51:11.398Z,10.53
2018-08-23T12:53:39.759Z,11.88
2018-08-23T12:56:08.096Z,10.40
2018-08-23T12:58:36.509Z,8.80
2018-08-23T13:01:04.885Z,9.50
2018-08-23T13:03:33.291Z,9.85
2018-08-23T13:06:01.619Z,10.38
2018-08-23T13:08:29.991Z,10.65
2018-08-23T13:10:58.371Z,10.23
2018-08-23T13:13:26.744Z,8.20
2018-08-23T13:15:55.080Z,9.28
2018-08-23T13:18:23.460Z,9.13
2018-08-23T13:20:51.901Z,8.90
2018-08-23T13:23:20.272Z,10.88
2018-08-23T13:25:54.488Z,9.83
2018-08-23T13:28:23.177Z,9.10
2018-08-23T13:30:51.559Z,9.30
2018-08-23T13:33:19.936Z,10.30
2018-08-23T13:35:48.317Z,9.13
2018-08-23T13:38:16.719Z,10.43
2018-08-23T13:40:45.092Z,8.95
2018-08-23T13:43:13.509Z,8.80
2018-08-23T13:45:41.884Z,9.10
2018-08-23T13:48:10.335Z,8.20
2018-08-23T13:50:38.739Z,6.62
2018-08-23T13:53:07.092Z,6.03
2018-08-23T13:55:35.465Z,6.87
2018-08-23T13:58:03.804Z,7.60
2018-08-23T14:00:39.045Z,8.63
2018-08-23T14:03:08.357Z,8.38
2018-08-23T14:05:37.304Z,7.35
2018-08-23T14:08:05.652Z,7.20
2018-08-23T14:10:34.040Z,8.50
2018-08-23T14:13:02.385Z,7.00
2018-08-23T14:15:36.125Z,8.10
2018-08-23T14:18:04.505Z,9.00
2018-08-23T14:20:32.871Z,8.58
2018-08-23T14:23:01.229Z,8.10
2018-08-23T14:25:29.593Z,8.23
2018-08-23T14:27:57.919Z,7.92
2018-08-23T14:30:26.288Z,7.97
2018-08-23T14:32:54.638Z,7.20
2018-08-23T14:35:23.012Z,7.87
2018-08-23T14:37:51.352Z,7.62
2018-08-23T14:40:19.785Z,8.05
2018-08-23T14:42:48.213Z,7.35
2018-08-23T14:45:21.564Z,8.05
2018-08-23T14:47:55.132Z,7.85
2018-08-23T14:50:23.484Z,8.35
2018-08-23T14:52:51.816Z,9.85
2018-08-23T14:55:25.516Z,8.68
2018-08-23T14:57:53.848Z,8.53
2018-08-23T15:00:22.234Z,8.08
2018-08-23T15:02:50.564Z,8.40
2018-08-23T15:05:18.937Z,8.38
2018-08-23T15:07:47.387Z,8.05
2018-08-23T15:10:15.679Z,8.75
2018-08-23T15:12:44.011Z,8.13
2018-08-23T15:15:12.393Z,8.88
2018-08-23T15:17:40.831Z,8.70
2018-08-23T15:20:09.224Z,8.78
2018-08-23T15:22:37.572Z,9.68
2018-08-23T15:25:06.144Z,8.80
2018-08-23T15:27:35.012Z,8.48
2018-08-23T15:30:04.744Z,7.62
2018-08-23T15:32:33.088Z,8.43
2018-08-23T15:35:01.463Z,8.40
2018-08-23T15:37:29.800Z,6.55
2018-08-23T15:39:58.144Z,7.42
2018-08-23T15:42:26.515Z,7.33
2018-08-23T15:44:54.887Z,7.75
2018-08-23T15:47:23.329Z,7.72
2018-08-23T15:49:51.659Z,8.25
2018-08-23T15:52:20.060Z,8.30
2018-08-23T15:54:48.459Z,7.85
2018-08-23T15:57:16.820Z,8.20
2018-08-23T15:59:45.168Z,9.68
2018-08-23T16:02:13.538Z,8.60
2018-08-23T16:04:41.876Z,10.30
2018-08-23T16:07:10.553Z,12.15
2018-08-23T16:09:38.888Z,11.05
2018-08-23T16:12:07.271Z,10.43
2018-08-23T16:14:35.619Z,10.60
2018-08-23T16:17:09.326Z,10.38
2018-08-23T16:19:43.088Z,8.53
2018-08-23T16:22:11.456Z,8.65
2018-08-23T16:24:39.800Z,8.78
2018-08-23T16:27:08.228Z,8.50
2018-08-23T16:29:36.592Z,7.30
2018-08-23T16:32:05.188Z,7.85
2018-08-23T16:34:33.550Z,8.35
2018-08-23T16:37:01.924Z,6.78
2018-08-23T16:39:30.266Z,7.58
2018-08-23T16:41:58.646Z,7.85
2018-08-23T16:44:27.121Z,7.08
2018-08-23T16:46:55.448Z,7.67
2018-08-23T16:49:23.801Z,6.62
2018-08-23T16:51:52.171Z,7.97
2018-08-23T16:54:20.511Z,7.70
2018-08-23T16:56:48.884Z,7.70
2018-08-23T16:59:17.221Z,7.08
2018-08-23T17:01:45.622Z,7.03
2018-08-23T17:04:13.996Z,7.92
2018-08-23T17:06:42.353Z,6.83
2018-08-23T17:09:10.700Z,7.40
2018-08-23T17:11:39.071Z,8.00
2018-08-23T17:14:07.425Z,7.80
2018-08-23T17:18:47.160Z,6.80
2018-08-23T17:21:15.508Z,7.15
2018-08-23T17:23:43.884Z,6.83
2018-08-23T17:26:12.333Z,8.00
2018-08-23T17:28:41.139Z,7.62
2018-08-23T17:31:09.481Z,8.50
2018-08-23T17:33:37.865Z,7.35
2018-08-23T17:36:06.296Z,7.60
2018-08-23T17:38:34.696Z,8.48
2018-08-23T17:41:03.058Z,8.50
2018-08-23T17:43:31.484Z,7.40
2018-08-23T17:45:59.813Z,7.60
2018-08-23T17:48:28.267Z,7.45
2018-08-23T17:50:56.568Z,9.23
2018-08-23T17:53:24.943Z,8.85
2018-08-23T17:55:53.325Z,8.20
2018-08-23T17:58:21.716Z,8.55
2018-08-23T18:00:50.062Z,7.45
2018-08-23T18:03:18.444Z,7.53
2018-08-23T18:05:46.785Z,8.78
2018-08-23T18:08:15.159Z,8.68
2018-08-23T18:10:43.500Z,7.67
2018-08-23T18:13:11.875Z,8.20
2018-08-23T18:15:45.585Z,8.05
2018-08-23T18:18:13.961Z,8.20
2018-08-23T18:20:42.310Z,8.53
2018-08-23T18:23:10.684Z,8.08
2018-08-23T18:25:39.064Z,9.38
2018-08-23T18:28:07.412Z,8.48
2018-08-23T18:30:35.756Z,8.38
2018-08-23T18:33:04.125Z,9.43
2018-08-23T18:35:32.460Z,8.75
2018-08-23T18:38:00.874Z,7.45
2018-08-23T18:40:29.208Z,9.48
2018-08-23T18:42:57.612Z,9.08
2018-08-23T18:45:25.985Z,8.23
2018-08-23T18:47:54.364Z,8.63
2018-08-23T18:50:22.704Z,8.70
2018-08-23T18:52:51.063Z,9.93
2018-08-23T18:55:19.401Z,10.18
2018-08-23T18:57:47.785Z,9.30
2018-08-23T19:00:16.159Z,9.03
2018-08-23T19:02:44.508Z,8.98
2018-08-23T19:05:12.868Z,9.80
2018-08-23T19:07:43.200Z,9.80
2018-08-23T19:10:12.057Z,9.00
2018-08-23T19:12:40.467Z,9.30
2018-08-23T19:15:09.047Z,8.85
2018-08-23T19:17:40.876Z,10.03
2018-08-23T19:20:10.757Z,8.63
2018-08-23T19:22:39.112Z,10.23
2018-08-23T19:25:08.952Z,9.75
2018-08-23T19:27:37.367Z,9.80
2018-08-23T19:30:06.724Z,10.72
2018-08-23T19:32:35.077Z,9.15
2018-08-23T19:35:03.470Z,9.78
2018-08-23T19:37:31.798Z,9.58
2018-08-23T19:40:00.187Z,10.10
2018-08-23T19:42:28.572Z,9.70
2018-08-23T19:45:00.156Z,9.60
2018-08-23T19:47:33.893Z,9.43
2018-08-23T19:50:03.601Z,11.20
2018-08-23T19:52:31.937Z,10.10
2018-08-23T19:55:00.317Z,10.50
2018-08-23T19:57:28.658Z,8.60
2018-08-23T19:59:57.034Z,9.03
2018-08-23T20:02:25.380Z,10.65
2018-08-23T20:04:53.756Z,9.45
2018-08-23T20:07:22.175Z,9.90
2018-08-23T20:09:50.557Z,10.58
2018-08-23T20:12:18.973Z,11.10
2018-08-23T20:14:47.329Z,10.30
2018-08-23T20:17:15.701Z,10.68
2018-08-23T20:19:44.088Z,9.93
2018-08-23T20:22:12.428Z,10.13
2018-08-23T20:24:40.804Z,9.35
2018-08-23T20:27:09.255Z,10.95
2018-08-23T20:29:37.627Z,10.50
2018-08-23T20:32:06.004Z,8.70
2018-08-23T20:34:34.437Z,9.70
2018-08-23T20:37:02.868Z,10.55
2018-08-23T20:39:31.347Z,9.48
2018-08-23T20:41:59.592Z,9.98
2018-08-23T20:44:28.017Z,9.00
2018-08-23T20:46:56.416Z,10.25
2018-08-23T20:49:24.789Z,9.98
2018-08-23T20:51:53.120Z,9.40
2018-08-23T20:54:21.496Z,9.38
2018-08-23T20:56:49.832Z,8.28
2018-08-23T20:59:18.234Z,9.33
2018-08-23T21:01:46.572Z,8.53
2018-08-23T21:04:15.007Z,9.33
2018-08-23T21:06:43.300Z,8.68
2018-08-23T21:09:13.060Z,9.48
2018-08-23T21:11:41.617Z,9.55
2018-08-23T21:14:10.847Z,8.65
2018-08-23T21:16:39.252Z,8.80
2018-08-23T21:19:07.803Z,9.50
2018-08-23T21:21:36.155Z,8.48
2018-08-23T21:24:04.539Z,8.95
2018-08-23T21:26:32.863Z,9.05
2018-08-23T21:29:01.200Z,8.53
2018-08-23T21:31:29.632Z,8.18
2018-08-23T21:33:57.964Z,8.50
2018-08-23T21:36:26.341Z,9.25
2018-08-23T21:38:54.672Z,9.28
2018-08-23T21:41:23.040Z,9.20
2018-08-23T21:43:51.436Z,9.55
2018-08-23T21:46:19.791Z,8.40
2018-08-23T21:48:48.127Z,8.78
2018-08-23T21:51:16.619Z,10.40
2018-08-23T21:53:45.014Z,8.55
2018-08-23T21:56:13.377Z,8.40
2018-08-23T21:58:41.739Z,7.90
2018-08-23T22:01:10.556Z,8.55
2018-08-23T22:03:39.242Z,8.85
2018-08-23T22:06:07.678Z,9.43
2018-08-23T22:08:36.037Z,8.25
2018-08-23T22:11:04.488Z,9.03
2018-08-23T22:13:32.852Z,8.95
2018-08-23T22:16:01.227Z,10.15
2018-08-23T22:18:29.572Z,9.98
2018-08-23T22:20:57.936Z,9.70
2018-08-23T22:23:26.296Z,8.78
2018-08-23T22:25:54.664Z,9.25
2018-08-23T22:28:23.001Z,8.85
2018-08-23T22:30:51.384Z,8.73
2018-08-23T22:33:19.728Z,9.30
2018-08-23T22:35:48.101Z,10.03
2018-08-23T22:38:16.432Z,9.33
2018-08-23T22:40:44.800Z,9.60
2018-08-23T22:43:13.144Z,9.05
2018-08-23T22:45:41.516Z,9.53
2018-08-23T22:48:09.852Z,9.98
2018-08-23T22:50:38.216Z,9.15
2018-08-23T22:53:06.555Z,9.10
2018-08-23T22:55:34.931Z,9.18
2018-08-23T22:58:03.280Z,10.38
2018-08-23T23:00:37.032Z,9.35
2018-08-23T23:03:09.603Z,9.90
2018-08-23T23:05:37.972Z,9.00
2018-08-23T23:08:08.572Z,9.00
2018-08-23T23:10:37.796Z,9.95
2018-08-23T23:13:06.170Z,9.38
2018-08-23T23:15:34.537Z,9.43
2018-08-23T23:18:03.024Z,10.30
2018-08-23T23:20:31.400Z,9.35
2018-08-23T23:22:59.772Z,9.50
2018-08-23T23:25:28.128Z,9.98
2018-08-23T23:27:56.495Z,9.45
2018-08-23T23:30:24.840Z,11.10
2018-08-23T23:32:53.200Z,10.55
2018-08-23T23:35:21.556Z,9.70
2018-08-23T23:37:49.921Z,9.88
2018-08-23T23:40:18.277Z,10.30
2018-08-23T23:42:46.648Z,9.85
2018-08-23T23:45:14.979Z,10.35
2018-08-23T23:47:43.369Z,9.80
2018-08-23T23:50:11.708Z,10.40
2018-08-23T23:52:40.068Z,10.60
2018-08-23T23:55:08.410Z,10.38
2018-08-23T23:57:36.781Z,10.48
